createdAt,value
2023-04-16T00:02:47.055Z,10.50
2023-04-16T00:05:59.349Z,11.10
2023-04-16T00:09:18.921Z,10.70
2023-04-16T00:12:28.511Z,9.80
2023-04-16T00:15:43.232Z,9.40
2023-04-16T00:19:11.080Z,8.80
2023-04-16T00:22:24.202Z,8.50
2023-04-16T00:25:37.071Z,9.00
2023-04-16T00:28:56.329Z,8.20
2023-04-16T00:32:15.986Z,8.00
2023-04-16T00:35:26.849Z,7.70
2023-04-16T00:38:46.721Z,9.20
2023-04-16T00:44:50.340Z,7.50
2023-04-16T00:48:09.658Z,8.90
2023-04-16T00:51:20.536Z,10.50
2023-04-16T00:54:32.716Z,9.50
2023-04-16T00:57:44.304Z,9.90
2023-04-16T01:00:56.584Z,9.40
2023-04-16T01:04:08.779Z,9.50
2023-04-16T01:07:26.756Z,10.00
2023-04-16T01:10:41.508Z,10.00
2023-04-16T01:13:53.097Z,10.10
2023-04-16T01:17:05.786Z,9.50
2023-04-16T01:20:19.044Z,9.20
2023-04-16T01:23:39.291Z,8.90
2023-04-16T01:26:50.330Z,8.80
2023-04-16T01:30:10.031Z,8.90
2023-04-16T01:33:29.925Z,8.70
2023-04-16T01:39:33.222Z,7.70
2023-04-16T01:42:47.672Z,7.10
2023-04-16T01:46:07.438Z,9.80
2023-04-16T01:49:19.176Z,8.40
2023-04-16T01:52:39.467Z,9.50
2023-04-16T01:55:58.890Z,9.00
2023-04-16T01:59:11.497Z,8.90
2023-04-16T02:02:26.451Z,9.00
2023-04-16T02:05:38.155Z,9.30
2023-04-16T02:08:54.705Z,9.50
2023-04-16T02:12:07.821Z,8.30
2023-04-16T02:15:20.664Z,7.60
2023-04-16T02:18:31.557Z,8.00
2023-04-16T02:21:42.678Z,8.20
2023-04-16T02:24:54.568Z,7.90
2023-04-16T02:27:58.142Z,7.20
2023-04-16T02:31:18.361Z,8.10
2023-04-16T02:34:29.739Z,7.80
2023-04-16T02:37:55.961Z,7.20
2023-04-16T02:41:08.881Z,8.00
2023-04-16T02:44:21.166Z,7.30
2023-04-16T02:47:34.014Z,7.10
2023-04-16T02:50:46.407Z,8.50
2023-04-16T02:54:06.663Z,7.50
2023-04-16T02:57:19.191Z,8.00
2023-04-16T03:00:39.552Z,7.80
2023-04-16T03:03:59.652Z,8.20
2023-04-16T03:07:19.906Z,6.80
2023-04-16T03:10:41.321Z,7.70
2023-04-16T03:13:52.144Z,7.00
2023-04-16T03:17:12.836Z,7.20
2023-04-16T03:20:33.030Z,7.10
2023-04-16T03:23:45.886Z,6.50
2023-04-16T03:26:57.895Z,6.80
2023-04-16T03:30:12.477Z,7.20
2023-04-16T03:33:31.669Z,6.70
2023-04-16T03:36:45.313Z,6.10
2023-04-16T03:39:56.101Z,6.10
2023-04-16T03:43:17.107Z,6.50
2023-04-16T03:46:29.143Z,6.10
2023-04-16T03:49:42.028Z,5.50
2023-04-16T03:52:54.617Z,6.00
2023-04-16T03:56:05.904Z,5.60
2023-04-16T03:59:25.160Z,5.90
2023-04-16T04:02:46.022Z,5.90
2023-04-16T04:05:58.635Z,5.80
2023-04-16T04:09:11.217Z,5.60
2023-04-16T04:12:22.212Z,6.70
2023-04-16T04:15:34.707Z,6.30
2023-04-16T04:18:55.031Z,5.50
2023-04-16T04:22:22.761Z,6.00
2023-04-16T04:25:45.019Z,6.00
2023-04-16T04:29:05.893Z,6.00
2023-04-16T04:32:18.546Z,6.30
2023-04-16T04:35:24.044Z,5.60
2023-04-16T04:38:36.616Z,5.80
2023-04-16T04:41:27.553Z,6.40
2023-04-16T04:44:45.911Z,7.00
2023-04-16T04:47:59.430Z,6.00
2023-04-16T04:51:18.749Z,5.90
2023-04-16T04:54:38.988Z,5.40
2023-04-16T04:57:58.225Z,5.90
2023-04-16T05:01:18.452Z,5.50
2023-04-16T05:04:33.194Z,7.30
2023-04-16T05:07:47.833Z,5.40
2023-04-16T05:11:00.303Z,5.80
2023-04-16T05:14:11.456Z,5.80
2023-04-16T05:17:22.399Z,5.70
2023-04-16T05:20:41.721Z,6.30
2023-04-16T05:23:53.977Z,6.20
2023-04-16T05:27:06.946Z,5.90
2023-04-16T05:30:19.939Z,5.60
2023-04-16T05:33:32.858Z,5.50
2023-04-16T05:36:46.515Z,5.70
2023-04-16T05:39:57.616Z,5.10
2023-04-16T05:43:20.371Z,5.60
2023-04-16T05:46:39.713Z,5.80
2023-04-16T05:49:51.973Z,5.90
2023-04-16T05:53:03.975Z,6.40
2023-04-16T05:56:18.181Z,5.40
2023-04-16T05:59:30.029Z,5.50
2023-04-16T06:02:43.337Z,5.70
2023-04-16T06:05:57.150Z,5.80
2023-04-16T06:09:09.346Z,5.60
2023-04-16T06:12:22.660Z,5.80
2023-04-16T06:15:37.925Z,5.30
2023-04-16T06:18:41.694Z,4.00
2023-04-16T06:21:52.495Z,4.10
2023-04-16T06:25:03.367Z,4.10
2023-04-16T06:28:14.519Z,4.30
2023-04-16T06:31:25.695Z,4.00
2023-04-16T06:34:40.595Z,4.10
2023-04-16T06:37:55.795Z,5.10
2023-04-16T06:41:08.212Z,4.30
2023-04-16T06:44:21.400Z,3.70
2023-04-16T06:47:41.056Z,4.00
2023-04-16T06:50:52.186Z,4.10
2023-04-16T06:54:11.424Z,3.50
2023-04-16T06:57:23.756Z,4.20
2023-04-16T07:00:36.847Z,4.00
2023-04-16T07:03:48.564Z,3.60
2023-04-16T07:07:01.522Z,4.70
2023-04-16T07:10:13.286Z,4.50
2023-04-16T07:13:32.527Z,4.90
2023-04-16T07:16:45.947Z,5.90
2023-04-16T07:20:13.635Z,5.30
2023-04-16T07:23:17.012Z,5.20
2023-04-16T07:26:29.243Z,5.20
2023-04-16T07:29:42.717Z,4.20
2023-04-16T07:33:11.405Z,4.80
2023-04-16T07:36:22.298Z,5.00
2023-04-16T07:39:41.608Z,5.00
2023-04-16T07:43:10.256Z,4.80
2023-04-16T07:46:21.262Z,4.60
2023-04-16T07:49:32.117Z,4.90
2023-04-16T07:52:44.353Z,5.70
2023-04-16T07:56:05.823Z,4.30
2023-04-16T07:59:23.684Z,5.00
2023-04-16T08:02:38.255Z,4.70
2023-04-16T08:06:01.041Z,4.10
2023-04-16T08:09:16.347Z,5.20
2023-04-16T08:12:28.751Z,4.60
2023-04-16T08:15:35.469Z,4.50
2023-04-16T08:18:39.582Z,5.40
2023-04-16T08:21:52.261Z,4.70
2023-04-16T08:25:12.691Z,4.90
2023-04-16T08:28:24.104Z,3.90
2023-04-16T08:31:36.996Z,4.40
2023-04-16T08:34:50.193Z,6.20
2023-04-16T08:38:02.686Z,5.20
2023-04-16T08:41:22.259Z,4.90
2023-04-16T08:44:34.017Z,4.30
2023-04-16T08:47:45.500Z,4.90
2023-04-16T08:50:59.193Z,4.80
2023-04-16T08:54:01.414Z,5.20
2023-04-16T08:57:12.863Z,5.40
2023-04-16T09:00:24.776Z,4.70
2023-04-16T09:03:44.309Z,5.80
2023-04-16T09:06:47.003Z,5.60
2023-04-16T09:10:02.885Z,4.80
2023-04-16T09:13:22.194Z,4.60
2023-04-16T09:16:39.175Z,4.10
2023-04-16T09:19:51.006Z,3.70
2023-04-16T09:23:03.975Z,4.10
2023-04-16T09:26:29.481Z,3.30
2023-04-16T09:29:40.296Z,3.50
2023-04-16T09:32:55.403Z,4.40
2023-04-16T09:36:17.199Z,3.90
2023-04-16T09:39:32.746Z,3.30
2023-04-16T09:42:49.241Z,3.50
2023-04-16T09:46:00.658Z,3.00
2023-04-16T09:49:13.989Z,2.70
2023-04-16T09:52:27.723Z,3.20
2023-04-16T09:55:39.205Z,3.20
2023-04-16T09:58:47.091Z,3.10
2023-04-16T10:02:16.600Z,2.70
2023-04-16T10:05:24.321Z,3.00
2023-04-16T10:08:35.283Z,2.50
2023-04-16T10:11:46.224Z,3.20
2023-04-16T10:15:06.838Z,3.30
2023-04-16T10:18:18.025Z,2.80
2023-04-16T10:21:30.454Z,2.90
2023-04-16T10:24:43.223Z,2.70
2023-04-16T10:27:45.704Z,3.00
2023-04-16T10:31:05.173Z,2.70
2023-04-16T10:34:18.054Z,2.40
2023-04-16T10:37:32.845Z,2.60
2023-04-16T10:40:50.024Z,2.70
2023-04-16T10:44:11.059Z,2.40
2023-04-16T10:47:08.072Z,2.50
2023-04-16T10:50:22.047Z,2.60
2023-04-16T10:53:36.950Z,2.20
2023-04-16T10:56:25.460Z,2.20
2023-04-16T10:59:43.695Z,2.80
2023-04-16T11:03:00.746Z,2.30
2023-04-16T11:06:12.745Z,2.40
2023-04-16T11:09:32.092Z,1.90
2023-04-16T11:15:29.416Z,1.80
2023-04-16T11:18:51.017Z,2.40
2023-04-16T11:22:02.610Z,2.00
2023-04-16T11:25:19.489Z,2.60
2023-04-16T11:28:35.157Z,2.40
2023-04-16T11:31:54.567Z,1.90
2023-04-16T11:35:08.616Z,2.10
2023-04-16T11:38:29.018Z,2.30
2023-04-16T11:41:47.104Z,2.50
2023-04-16T11:45:01.749Z,2.30
2023-04-16T11:48:17.014Z,2.50
2023-04-16T11:51:27.879Z,2.60
2023-04-16T11:54:59.897Z,2.40
2023-04-16T11:58:13.519Z,2.80
2023-04-16T12:01:36.987Z,2.30
2023-04-16T12:04:56.239Z,2.60
2023-04-16T12:11:29.670Z,2.60
2023-04-16T12:14:43.727Z,2.70
2023-04-16T12:18:03.594Z,2.60
2023-04-16T12:21:17.451Z,2.40
2023-04-16T12:24:28.850Z,2.60
2023-04-16T12:27:56.643Z,2.50
2023-04-16T12:31:23.604Z,2.90
2023-04-16T12:34:48.702Z,2.10
2023-04-16T12:38:01.550Z,2.00
2023-04-16T12:41:15.531Z,1.90
2023-04-16T12:44:29.804Z,2.20
2023-04-16T12:47:41.776Z,2.30
2023-04-16T12:50:53.439Z,1.90
2023-04-16T12:54:04.318Z,2.00
2023-04-16T12:57:21.286Z,2.00
2023-04-16T13:00:50.578Z,2.20
2023-04-16T13:04:10.265Z,2.30
2023-04-16T13:07:26.838Z,2.20
2023-04-16T13:10:30.544Z,2.30
2023-04-16T13:13:41.416Z,2.30
2023-04-16T13:16:52.370Z,2.40
2023-04-16T13:20:21.470Z,2.10
2023-04-16T13:23:51.001Z,2.50
2023-04-16T13:27:15.254Z,2.40
2023-04-16T13:30:29.577Z,2.50
2023-04-16T13:33:49.185Z,2.20
2023-04-16T13:37:01.217Z,2.30
2023-04-16T13:40:15.803Z,2.20
2023-04-16T13:43:35.791Z,2.50
2023-04-16T13:46:46.655Z,2.60
2023-04-16T13:49:57.569Z,2.60
2023-04-16T13:53:16.860Z,2.60
2023-04-16T13:59:29.778Z,2.60
2023-04-16T14:02:51.805Z,3.10
2023-04-16T14:06:11.422Z,2.50
2023-04-16T14:09:25.344Z,2.30
2023-04-16T14:12:36.162Z,2.20
2023-04-16T14:15:56.973Z,2.50
2023-04-16T14:19:16.315Z,2.70
2023-04-16T14:25:34.307Z,2.70
2023-04-16T14:28:48.816Z,2.50
2023-04-16T14:32:16.653Z,2.50
2023-04-16T14:35:43.549Z,2.50
2023-04-16T14:38:58.625Z,2.30
2023-04-16T14:42:10.591Z,2.80
2023-04-16T14:45:23.181Z,3.30
2023-04-16T14:48:43.518Z,2.30
2023-04-16T14:51:54.907Z,2.90
2023-04-16T14:54:57.412Z,2.90
2023-04-16T14:58:20.913Z,2.70
2023-04-16T15:01:32.740Z,2.80
2023-04-16T15:04:45.422Z,2.80
2023-04-16T15:08:00.101Z,3.10
2023-04-16T15:11:13.743Z,3.00
2023-04-16T15:14:36.369Z,2.80
2023-04-16T15:17:57.105Z,2.50
2023-04-16T15:21:09.918Z,2.60
2023-04-16T15:24:25.479Z,2.60
2023-04-16T15:27:36.954Z,3.50
2023-04-16T15:30:34.372Z,3.30
2023-04-16T15:33:45.267Z,3.20
2023-04-16T15:36:59.342Z,3.00
2023-04-16T15:40:13.897Z,3.20
2023-04-16T15:43:34.884Z,3.20
2023-04-16T15:46:47.794Z,2.90
2023-04-16T15:50:01.071Z,3.30
2023-04-16T15:53:14.009Z,3.20
2023-04-16T15:56:33.925Z,2.90
2023-04-16T15:59:55.840Z,3.00
2023-04-16T16:03:12.460Z,3.40
2023-04-16T16:06:24.397Z,2.80
2023-04-16T16:09:46.912Z,3.10
2023-04-16T16:12:48.964Z,3.10
2023-04-16T16:16:09.360Z,2.80
2023-04-16T16:19:28.629Z,3.40
2023-04-16T16:22:42.293Z,3.10
2023-04-16T16:25:53.814Z,3.10
2023-04-16T16:29:06.869Z,2.90
2023-04-16T16:32:13.887Z,2.80
2023-04-16T16:35:33.542Z,2.80
2023-04-16T16:38:46.121Z,3.10
2023-04-16T16:42:00.248Z,2.70
2023-04-16T16:45:14.338Z,3.00
2023-04-16T16:48:25.395Z,2.90
2023-04-16T16:51:36.223Z,2.90
2023-04-16T16:54:51.553Z,3.10
2023-04-16T16:58:06.153Z,3.00
2023-04-16T17:01:23.484Z,3.20
2023-04-16T17:04:35.906Z,3.20
2023-04-16T17:07:39.385Z,3.30
2023-04-16T17:10:50.991Z,2.90
2023-04-16T17:14:11.184Z,3.30
2023-04-16T17:17:25.780Z,4.20
2023-04-16T17:20:36.710Z,3.70
2023-04-16T17:23:56.005Z,4.20
2023-04-16T17:27:23.796Z,4.10
2023-04-16T17:30:46.356Z,4.60
2023-04-16T17:33:58.137Z,5.20
2023-04-16T17:37:09.566Z,5.10
2023-04-16T17:40:20.466Z,5.00
2023-04-16T17:43:31.279Z,5.40
2023-04-16T17:46:42.599Z,5.60
2023-04-16T17:49:54.435Z,6.40
2023-04-16T17:53:02.611Z,6.20
2023-04-16T17:56:22.491Z,5.90
2023-04-16T17:59:33.632Z,5.20
2023-04-16T18:02:45.524Z,5.10
2023-04-16T18:05:56.600Z,5.30
2023-04-16T18:09:08.875Z,5.80
2023-04-16T18:12:21.891Z,6.60
2023-04-16T18:15:38.420Z,6.50
2023-04-16T18:19:06.197Z,5.70
2023-04-16T18:22:21.719Z,5.60
2023-04-16T18:25:35.019Z,5.10
2023-04-16T18:28:49.795Z,6.90
2023-04-16T18:32:04.257Z,7.60
2023-04-16T18:35:16.005Z,7.10
2023-04-16T18:38:32.686Z,7.40
2023-04-16T18:41:40.241Z,7.40
2023-04-16T18:44:54.162Z,7.50
2023-04-16T18:48:05.149Z,6.80
2023-04-16T18:51:08.955Z,9.10
2023-04-16T18:54:20.824Z,8.20
2023-04-16T18:57:38.863Z,7.90
2023-04-16T19:00:58.738Z,6.80
2023-04-16T19:04:18.141Z,6.80
2023-04-16T19:07:23.701Z,7.60
2023-04-16T19:10:27.450Z,6.70
2023-04-16T19:13:38.697Z,7.70
2023-04-16T19:16:52.292Z,8.00
2023-04-16T19:20:03.216Z,7.40
2023-04-16T19:23:16.127Z,6.50
2023-04-16T19:26:29.788Z,7.00
2023-04-16T19:29:41.196Z,7.50
2023-04-16T19:32:55.456Z,7.40
2023-04-16T19:36:07.656Z,7.00
2023-04-16T19:39:18.815Z,7.90
2023-04-16T19:42:29.672Z,8.80
2023-04-16T19:45:37.461Z,7.30
2023-04-16T19:48:49.096Z,6.60
2023-04-16T19:52:03.432Z,7.50
2023-04-16T19:55:22.543Z,8.30
2023-04-16T19:58:30.056Z,8.80
2023-04-16T20:01:44.250Z,10.40
2023-04-16T20:05:11.964Z,9.10
2023-04-16T20:08:32.491Z,9.60
2023-04-16T20:11:46.106Z,9.10
2023-04-16T20:14:57.502Z,9.70
2023-04-16T20:18:26.450Z,10.20
2023-04-16T20:21:40.996Z,11.60
2023-04-16T20:28:33.174Z,10.30
2023-04-16T20:31:52.712Z,9.70
2023-04-16T20:35:05.115Z,14.30
2023-04-16T20:38:18.276Z,12.50
2023-04-16T20:41:33.311Z,10.80
2023-04-16T20:44:46.522Z,9.40
2023-04-16T20:48:00.820Z,9.60
2023-04-16T20:51:03.383Z,10.30
2023-04-16T20:54:14.190Z,11.00
2023-04-16T20:57:41.729Z,9.50
2023-04-16T21:00:53.762Z,9.80
2023-04-16T21:04:04.718Z,10.60
2023-04-16T21:07:25.128Z,10.70
2023-04-16T21:10:36.209Z,12.00
2023-04-16T21:13:49.340Z,11.90
2023-04-16T21:17:00.109Z,10.70
2023-04-16T21:20:13.437Z,10.50
2023-04-16T21:23:24.406Z,11.30
2023-04-16T21:26:37.306Z,11.90
2023-04-16T21:29:51.313Z,12.20
2023-04-16T21:33:11.583Z,11.10
2023-04-16T21:36:32.289Z,10.60
2023-04-16T21:39:45.077Z,12.60
2023-04-16T21:42:57.280Z,11.70
2023-04-16T21:46:16.471Z,12.60
2023-04-16T21:49:27.374Z,15.20
2023-04-16T21:52:38.301Z,11.30
2023-04-16T21:56:01.007Z,11.30
2023-04-16T21:59:21.442Z,13.60
2023-04-16T22:02:32.706Z,15.50
2023-04-16T22:05:43.682Z,14.20
2023-04-16T22:09:03.103Z,15.90
2023-04-16T22:12:06.629Z,13.20
2023-04-16T22:15:28.542Z,12.30
2023-04-16T22:18:48.883Z,13.00
2023-04-16T22:21:53.569Z,11.50
2023-04-16T22:25:05.068Z,10.30
2023-04-16T22:28:16.805Z,11.10
2023-04-16T22:31:28.163Z,10.80
2023-04-16T22:34:40.920Z,10.90
2023-04-16T22:37:52.731Z,10.50
2023-04-16T22:41:03.474Z,11.20
2023-04-16T22:44:14.527Z,11.10
2023-04-16T22:47:33.771Z,9.10
2023-04-16T22:50:58.156Z,9.50
2023-04-16T22:54:14.622Z,11.40
2023-04-16T22:57:25.655Z,11.20
2023-04-16T23:00:40.399Z,11.50
2023-04-16T23:03:55.118Z,11.60
2023-04-16T23:07:14.353Z,10.90
2023-04-16T23:10:26.154Z,10.10
2023-04-16T23:13:39.040Z,9.60
2023-04-16T23:16:50.944Z,9.80
2023-04-16T23:20:04.091Z,11.20
2023-04-16T23:23:16.039Z,10.70
2023-04-16T23:26:29.047Z,9.80
2023-04-16T23:29:42.041Z,10.20
2023-04-16T23:32:52.837Z,9.00
2023-04-16T23:36:13.422Z,9.10
2023-04-16T23:39:24.552Z,9.50
2023-04-16T23:42:36.688Z,9.90
2023-04-16T23:45:52.058Z,10.20
2023-04-16T23:49:03.888Z,9.40
2023-04-16T23:52:15.412Z,9.20
2023-04-16T23:55:27.221Z,10.20
2023-04-16T23:58:47.443Z,10.40
